l'Alfas del Pi, Spain
Current Conditions -  °F | °C
As of 9:00 PM on Saturday 20 Dec 2014 (Local Time) from LEAL Reporting Station
Scattered Clouds Scattered Clouds  
Wind Chill: 57°   Ceiling: Unl
Heat Index: 57°   Visibility: 6mi
Dew Point: 52°   Wind: 0mph
Humidity: 82%   Direction: NA
Pressure: 30.45"   Gusts: NA
Location:  38.58°N, 0.1°W
Report Text: LEAL 202000Z 00000KT 9999 SCT018 SCT025 14/11 Q1031 NOSIG
Loading
Personal Weather Stations






























Interactive Weather Map New forecast layout! Learn more

10-Day Weather Forecast

Advertisements
Track Severe Weather on mobile